sensor_id;sensor_type;location;lat;lon;timestamp;pressure;altitude;pressure_sealevel;temperature;humidity
28927;BME280;16038;47.692;9.400;2023-03-19T00:01:53;96344.00;;;6.68;100.00
28927;BME280;16038;47.692;9.400;2023-03-19T00:04:18;96350.69;;;6.70;100.00
28927;BME280;16038;47.692;9.400;2023-03-19T00:06:43;96344.47;;;6.86;100.00
28927;BME280;16038;47.692;9.400;2023-03-19T00:09:09;96355.25;;;6.98;100.00
28927;BME280;16038;47.692;9.400;2023-03-19T00:11:35;96355.00;;;7.03;100.00
28927;BME280;16038;47.692;9.400;2023-03-19T00:14:00;96359.25;;;7.17;100.00
28927;BME280;16038;47.692;9.400;2023-03-19T00:16:25;96360.09;;;7.21;100.00
28927;BME280;16038;47.692;9.400;2023-03-19T00:18:51;96362.81;;;7.21;100.00
28927;BME280;16038;47.692;9.400;2023-03-19T00:21:16;96366.34;;;7.21;100.00
28927;BME280;16038;47.692;9.400;2023-03-19T00:23:41;96363.88;;;7.16;100.00
28927;BME280;16038;47.692;9.400;2023-03-19T00:26:07;96371.09;;;7.24;100.00
28927;BME280;16038;47.692;9.400;2023-03-19T00:28:32;96367.56;;;7.24;100.00
28927;BME280;16038;47.692;9.400;2023-03-19T00:31:05;96361.06;;;7.28;100.00
28927;BME280;16038;47.692;9.400;2023-03-19T00:33:31;96373.53;;;7.30;100.00
28927;BME280;16038;47.692;9.400;2023-03-19T00:35:56;96364.28;;;7.34;100.00
28927;BME280;16038;47.692;9.400;2023-03-19T00:38:22;96375.53;;;7.33;100.00
28927;BME280;16038;47.692;9.400;2023-03-19T00:40:48;96382.41;;;7.26;100.00
28927;BME280;16038;47.692;9.400;2023-03-19T00:43:13;96379.84;;;7.34;100.00
28927;BME280;16038;47.692;9.400;2023-03-19T00:45:39;96380.03;;;7.25;100.00
28927;BME280;16038;47.692;9.400;2023-03-19T00:48:04;96389.88;;;7.30;100.00
28927;BME280;16038;47.692;9.400;2023-03-19T00:50:30;96384.34;;;7.26;100.00
28927;BME280;16038;47.692;9.400;2023-03-19T00:52:55;96386.28;;;7.25;100.00
28927;BME280;16038;47.692;9.400;2023-03-19T00:55:21;96386.47;;;7.17;100.00
28927;BME280;16038;47.692;9.400;2023-03-19T00:57:46;96388.19;;;6.93;100.00
28927;BME280;16038;47.692;9.400;2023-03-19T01:00:11;96389.59;;;6.87;100.00
28927;BME280;16038;47.692;9.400;2023-03-19T01:02:37;96387.13;;;6.82;100.00
28927;BME280;16038;47.692;9.400;2023-03-19T01:05:03;96396.75;;;6.92;100.00
28927;BME280;16038;47.692;9.400;2023-03-19T01:07:28;96383.47;;;7.06;100.00
28927;BME280;16038;47.692;9.400;2023-03-19T01:09:53;96387.50;;;7.28;100.00
28927;BME280;16038;47.692;9.400;2023-03-19T01:12:19;96391.19;;;7.36;100.00
28927;BME280;16038;47.692;9.400;2023-03-19T01:14:44;96398.06;;;7.45;100.00
28927;BME280;16038;47.692;9.400;2023-03-19T01:17:10;96403.94;;;7.47;100.00
28927;BME280;16038;47.692;9.400;2023-03-19T01:19:35;96405.41;;;7.45;100.00
28927;BME280;16038;47.692;9.400;2023-03-19T01:22:00;96406.06;;;7.38;100.00
28927;BME280;16038;47.692;9.400;2023-03-19T01:24:29;96405.88;;;7.31;100.00
28927;BME280;16038;47.692;9.400;2023-03-19T01:26:55;96406.94;;;7.26;100.00
28927;BME280;16038;47.692;9.400;2023-03-19T01:29:20;96409.41;;;7.32;100.00
28927;BME280;16038;47.692;9.400;2023-03-19T01:31:45;96414.31;;;7.42;100.00
28927;BME280;16038;47.692;9.400;2023-03-19T01:34:11;96406.75;;;7.51;100.00
28927;BME280;16038;47.692;9.400;2023-03-19T01:36:36;96414.09;;;7.51;100.00
28927;BME280;16038;47.692;9.400;2023-03-19T01:39:03;96413.59;;;7.45;100.00
28927;BME280;16038;47.692;9.400;2023-03-19T01:41:29;96416.41;;;7.33;100.00
28927;BME280;16038;47.692;9.400;2023-03-19T01:43:54;96415.38;;;7.21;100.00
28927;BME280;16038;47.692;9.400;2023-03-19T01:48:47;96418.78;;;7.18;100.00
28927;BME280;16038;47.692;9.400;2023-03-19T01:51:14;96417.81;;;7.11;100.00
28927;BME280;16038;47.692;9.400;2023-03-19T01:53:40;96417.09;;;6.98;100.00
28927;BME280;16038;47.692;9.400;2023-03-19T01:56:17;96413.16;;;6.95;100.00
28927;BME280;16038;47.692;9.400;2023-03-19T01:58:44;96416.06;;;6.86;100.00
28927;BME280;16038;47.692;9.400;2023-03-19T02:01:10;96429.31;;;6.88;100.00
28927;BME280;16038;47.692;9.400;2023-03-19T02:03:36;96424.06;;;6.95;100.00
28927;BME280;16038;47.692;9.400;2023-03-19T02:06:02;96429.88;;;7.10;100.00
28927;BME280;16038;47.692;9.400;2023-03-19T02:08:27;96439.44;;;7.19;100.00
28927;BME280;16038;47.692;9.400;2023-03-19T02:10:53;96428.28;;;7.24;100.00
28927;BME280;16038;47.692;9.400;2023-03-19T02:13:20;96431.44;;;7.26;100.00
28927;BME280;16038;47.692;9.400;2023-03-19T02:15:45;96438.56;;;7.47;100.00
28927;BME280;16038;47.692;9.400;2023-03-19T02:18:11;96442.09;;;7.47;100.00
28927;BME280;16038;47.692;9.400;2023-03-19T02:20:43;96436.47;;;7.40;100.00
28927;BME280;16038;47.692;9.400;2023-03-19T02:28:23;96443.38;;;7.38;100.00
28927;BME280;16038;47.692;9.400;2023-03-19T02:30:49;96442.69;;;7.41;100.00
28927;BME280;16038;47.692;9.400;2023-03-19T02:33:15;96445.25;;;7.65;100.00
28927;BME280;16038;47.692;9.400;2023-03-19T02:35:42;96446.34;;;7.80;100.00
28927;BME280;16038;47.692;9.400;2023-03-19T02:38:08;96448.25;;;7.96;100.00
28927;BME280;16038;47.692;9.400;2023-03-19T02:40:37;96453.16;;;8.06;100.00
28927;BME280;16038;47.692;9.400;2023-03-19T02:43:03;96453.81;;;8.19;100.00
28927;BME280;16038;47.692;9.400;2023-03-19T02:45:29;96441.41;;;8.21;100.00
28927;BME280;16038;47.692;9.400;2023-03-19T02:47:55;96442.81;;;8.15;100.00
28927;BME280;16038;47.692;9.400;2023-03-19T02:50:21;96451.41;;;8.33;100.00
28927;BME280;16038;47.692;9.400;2023-03-19T02:52:46;96455.41;;;8.20;100.00
28927;BME280;16038;47.692;9.400;2023-03-19T02:55:11;96457.03;;;8.05;100.00
28927;BME280;16038;47.692;9.400;2023-03-19T02:57:37;96453.88;;;8.22;100.00
28927;BME280;16038;47.692;9.400;2023-03-19T03:00:03;96462.81;;;8.19;100.00
28927;BME280;16038;47.692;9.400;2023-03-19T03:02:29;96466.16;;;8.13;100.00
28927;BME280;16038;47.692;9.400;2023-03-19T03:04:54;96464.56;;;8.12;100.00
28927;BME280;16038;47.692;9.400;2023-03-19T03:07:20;96471.28;;;8.14;100.00
28927;BME280;16038;47.692;9.400;2023-03-19T03:09:46;96466.19;;;7.97;100.00
28927;BME280;16038;47.692;9.400;2023-03-19T03:12:11;96474.56;;;7.88;100.00
28927;BME280;16038;47.692;9.400;2023-03-19T03:14:36;96471.91;;;7.92;100.00
28927;BME280;16038;47.692;9.400;2023-03-19T03:17:02;96472.19;;;7.87;100.00
28927;BME280;16038;47.692;9.400;2023-03-19T03:19:27;96479.41;;;7.95;100.00
28927;BME280;16038;47.692;9.400;2023-03-19T03:21:52;96480.09;;;7.92;100.00
28927;BME280;16038;47.692;9.400;2023-03-19T03:24:18;96482.22;;;7.82;100.00
28927;BME280;16038;47.692;9.400;2023-03-19T03:26:43;96489.88;;;7.77;100.00
28927;BME280;16038;47.692;9.400;2023-03-19T03:29:09;96494.56;;;7.76;100.00
28927;BME280;16038;47.692;9.400;2023-03-19T03:31:34;96503.53;;;7.77;100.00
28927;BME280;16038;47.692;9.400;2023-03-19T03:34:00;96496.56;;;7.79;100.00
28927;BME280;16038;47.692;9.400;2023-03-19T03:36:25;96495.88;;;7.82;100.00
28927;BME280;16038;47.692;9.400;2023-03-19T03:38:51;96510.00;;;7.88;100.00
28927;BME280;16038;47.692;9.400;2023-03-19T03:41:17;96507.19;;;7.84;100.00
28927;BME280;16038;47.692;9.400;2023-03-19T03:43:42;96510.75;;;7.85;100.00
28927;BME280;16038;47.692;9.400;2023-03-19T03:46:08;96510.41;;;7.71;100.00
28927;BME280;16038;47.692;9.400;2023-03-19T03:48:33;96507.75;;;7.74;100.00
28927;BME280;16038;47.692;9.400;2023-03-19T03:50:59;96514.59;;;7.84;100.00
28927;BME280;16038;47.692;9.400;2023-03-19T03:53:25;96509.31;;;7.91;100.00
28927;BME280;16038;47.692;9.400;2023-03-19T03:55:50;96512.72;;;8.04;100.00
28927;BME280;16038;47.692;9.400;2023-03-19T03:58:15;96520.38;;;8.14;100.00
28927;BME280;16038;47.692;9.400;2023-03-19T04:00:41;96517.84;;;8.06;100.00
28927;BME280;16038;47.692;9.400;2023-03-19T04:03:06;96516.19;;;7.85;100.00
28927;BME280;16038;47.692;9.400;2023-03-19T04:05:31;96510.91;;;7.76;100.00
28927;BME280;16038;47.692;9.400;2023-03-19T04:07:56;96511.19;;;7.71;100.00
28927;BME280;16038;47.692;9.400;2023-03-19T04:10:23;96519.19;;;7.64;100.00
28927;BME280;16038;47.692;9.400;2023-03-19T04:12:49;96516.63;;;7.71;100.00
28927;BME280;16038;47.692;9.400;2023-03-19T04:15:14;96517.94;;;7.77;100.00
28927;BME280;16038;47.692;9.400;2023-03-19T04:17:41;96518.03;;;7.81;100.00
28927;BME280;16038;47.692;9.400;2023-03-19T04:20:08;96523.13;;;7.82;100.00
28927;BME280;16038;47.692;9.400;2023-03-19T04:22:33;96524.28;;;7.81;100.00
28927;BME280;16038;47.692;9.400;2023-03-19T04:24:59;96518.91;;;7.85;100.00
28927;BME280;16038;47.692;9.400;2023-03-19T04:27:24;96521.72;;;7.89;100.00
28927;BME280;16038;47.692;9.400;2023-03-19T04:29:50;96522.34;;;7.98;100.00
28927;BME280;16038;47.692;9.400;2023-03-19T04:32:15;96527.31;;;8.12;100.00
28927;BME280;16038;47.692;9.400;2023-03-19T04:34:41;96529.69;;;8.13;100.00
28927;BME280;16038;47.692;9.400;2023-03-19T04:37:07;96525.94;;;8.02;100.00
28927;BME280;16038;47.692;9.400;2023-03-19T04:39:34;96530.59;;;8.01;100.00
28927;BME280;16038;47.692;9.400;2023-03-19T04:41:59;96535.97;;;7.98;100.00
28927;BME280;16038;47.692;9.400;2023-03-19T04:44:25;96544.84;;;8.11;100.00
28927;BME280;16038;47.692;9.400;2023-03-19T04:46:51;96538.19;;;8.28;100.00
28927;BME280;16038;47.692;9.400;2023-03-19T04:49:16;96544.09;;;8.30;100.00
28927;BME280;16038;47.692;9.400;2023-03-19T04:51:42;96543.03;;;8.34;100.00
28927;BME280;16038;47.692;9.400;2023-03-19T04:54:07;96544.69;;;8.39;100.00
28927;BME280;16038;47.692;9.400;2023-03-19T04:56:33;96554.38;;;8.36;100.00
28927;BME280;16038;47.692;9.400;2023-03-19T04:58:58;96554.03;;;8.38;100.00
28927;BME280;16038;47.692;9.400;2023-03-19T05:01:23;96558.16;;;8.32;100.00
28927;BME280;16038;47.692;9.400;2023-03-19T05:03:49;96561.81;;;8.20;100.00
28927;BME280;16038;47.692;9.400;2023-03-19T05:06:15;96562.06;;;8.15;100.00
28927;BME280;16038;47.692;9.400;2023-03-19T05:08:41;96566.31;;;8.12;100.00
28927;BME280;16038;47.692;9.400;2023-03-19T05:11:06;96569.22;;;8.03;100.00
28927;BME280;16038;47.692;9.400;2023-03-19T05:13:32;96568.69;;;7.98;100.00
28927;BME280;16038;47.692;9.400;2023-03-19T05:15:57;96575.81;;;8.02;100.00
28927;BME280;16038;47.692;9.400;2023-03-19T05:18:22;96568.97;;;8.09;100.00
28927;BME280;16038;47.692;9.400;2023-03-19T05:20:47;96575.03;;;8.18;100.00
28927;BME280;16038;47.692;9.400;2023-03-19T05:23:13;96583.28;;;8.21;100.00
28927;BME280;16038;47.692;9.400;2023-03-19T05:25:38;96576.47;;;8.31;100.00
28927;BME280;16038;47.692;9.400;2023-03-19T05:28:05;96583.97;;;8.18;100.00
28927;BME280;16038;47.692;9.400;2023-03-19T05:30:31;96585.03;;;8.14;100.00
28927;BME280;16038;47.692;9.400;2023-03-19T05:32:57;96583.47;;;8.13;100.00
28927;BME280;16038;47.692;9.400;2023-03-19T05:35:23;96590.13;;;8.15;100.00
28927;BME280;16038;47.692;9.400;2023-03-19T05:37:48;96584.50;;;8.24;100.00
28927;BME280;16038;47.692;9.400;2023-03-19T05:40:13;96579.91;;;8.28;100.00
28927;BME280;16038;47.692;9.400;2023-03-19T05:42:40;96581.06;;;8.27;100.00
28927;BME280;16038;47.692;9.400;2023-03-19T05:45:06;96588.56;;;8.30;100.00
28927;BME280;16038;47.692;9.400;2023-03-19T05:47:31;96592.44;;;8.29;100.00
28927;BME280;16038;47.692;9.400;2023-03-19T05:49:58;96596.03;;;8.33;100.00
28927;BME280;16038;47.692;9.400;2023-03-19T05:52:23;96602.63;;;8.32;100.00
28927;BME280;16038;47.692;9.400;2023-03-19T05:54:48;96604.38;;;8.40;100.00
28927;BME280;16038;47.692;9.400;2023-03-19T05:57:14;96607.47;;;8.55;100.00
28927;BME280;16038;47.692;9.400;2023-03-19T05:59:40;96605.47;;;8.52;100.00
28927;BME280;16038;47.692;9.400;2023-03-19T06:02:05;96602.34;;;8.53;100.00
28927;BME280;16038;47.692;9.400;2023-03-19T06:04:31;96606.69;;;8.54;100.00
28927;BME280;16038;47.692;9.400;2023-03-19T06:06:56;96613.00;;;8.58;100.00
28927;BME280;16038;47.692;9.400;2023-03-19T06:09:22;96613.16;;;8.66;100.00
28927;BME280;16038;47.692;9.400;2023-03-19T06:11:47;96616.13;;;8.76;100.00
28927;BME280;16038;47.692;9.400;2023-03-19T06:14:12;96614.13;;;8.93;100.00
28927;BME280;16038;47.692;9.400;2023-03-19T06:16:37;96616.97;;;9.16;100.00
28927;BME280;16038;47.692;9.400;2023-03-19T06:19:02;96622.22;;;9.25;100.00
28927;BME280;16038;47.692;9.400;2023-03-19T06:21:28;96612.88;;;9.26;100.00
28927;BME280;16038;47.692;9.400;2023-03-19T06:23:54;96621.94;;;9.30;100.00
28927;BME280;16038;47.692;9.400;2023-03-19T06:26:19;96629.84;;;9.35;100.00
28927;BME280;16038;47.692;9.400;2023-03-19T06:28:45;96626.69;;;9.33;100.00
28927;BME280;16038;47.692;9.400;2023-03-19T06:31:10;96628.59;;;9.32;100.00
28927;BME280;16038;47.692;9.400;2023-03-19T06:33:35;96621.00;;;9.22;100.00
28927;BME280;16038;47.692;9.400;2023-03-19T06:36:01;96629.91;;;9.19;100.00
28927;BME280;16038;47.692;9.400;2023-03-19T06:38:26;96634.56;;;8.99;100.00
28927;BME280;16038;47.692;9.400;2023-03-19T06:40:52;96629.38;;;8.94;100.00
28927;BME280;16038;47.692;9.400;2023-03-19T06:43:17;96627.38;;;9.10;100.00
28927;BME280;16038;47.692;9.400;2023-03-19T06:45:42;96626.16;;;9.47;100.00
28927;BME280;16038;47.692;9.400;2023-03-19T06:48:07;96626.81;;;9.83;100.00
28927;BME280;16038;47.692;9.400;2023-03-19T06:50:33;96626.91;;;10.09;100.00
28927;BME280;16038;47.692;9.400;2023-03-19T06:52:58;96626.66;;;10.18;100.00
28927;BME280;16038;47.692;9.400;2023-03-19T06:55:23;96630.53;;;10.17;100.00
28927;BME280;16038;47.692;9.400;2023-03-19T06:57:49;96633.53;;;10.31;100.00
28927;BME280;16038;47.692;9.400;2023-03-19T07:00:15;96626.47;;;10.30;100.00
28927;BME280;16038;47.692;9.400;2023-03-19T07:02:40;96628.16;;;10.62;100.00
28927;BME280;16038;47.692;9.400;2023-03-19T07:05:06;96624.16;;;10.82;100.00
28927;BME280;16038;47.692;9.400;2023-03-19T07:07:31;96623.59;;;11.00;100.00
28927;BME280;16038;47.692;9.400;2023-03-19T07:09:56;96627.13;;;11.31;99.49
28927;BME280;16038;47.692;9.400;2023-03-19T07:12:22;96631.00;;;11.60;98.80
28927;BME280;16038;47.692;9.400;2023-03-19T07:14:47;96633.03;;;11.66;99.33
28927;BME280;16038;47.692;9.400;2023-03-19T07:17:12;96632.44;;;11.84;98.47
28927;BME280;16038;47.692;9.400;2023-03-19T07:19:38;96633.34;;;12.40;95.80
28927;BME280;16038;47.692;9.400;2023-03-19T07:22:03;96632.47;;;12.77;92.10
28927;BME280;16038;47.692;9.400;2023-03-19T07:24:29;96636.03;;;12.81;89.69
28927;BME280;16038;47.692;9.400;2023-03-19T07:26:54;96646.22;;;12.80;91.02
28927;BME280;16038;47.692;9.400;2023-03-19T07:29:20;96637.13;;;12.73;91.05
28927;BME280;16038;47.692;9.400;2023-03-19T07:31:46;96635.88;;;12.59;90.51
28927;BME280;16038;47.692;9.400;2023-03-19T07:34:11;96642.66;;;12.24;91.52
28927;BME280;16038;47.692;9.400;2023-03-19T07:36:36;96640.25;;;12.19;91.31
28927;BME280;16038;47.692;9.400;2023-03-19T07:39:02;96644.00;;;11.66;94.94
28927;BME280;16038;47.692;9.400;2023-03-19T07:41:27;96646.53;;;11.82;93.62
28927;BME280;16038;47.692;9.400;2023-03-19T07:43:53;96650.63;;;11.96;90.68
28927;BME280;16038;47.692;9.400;2023-03-19T07:46:18;96652.66;;;12.06;89.60
28927;BME280;16038;47.692;9.400;2023-03-19T07:48:43;96644.97;;;11.81;90.55
28927;BME280;16038;47.692;9.400;2023-03-19T07:51:09;96650.78;;;11.76;91.93
28927;BME280;16038;47.692;9.400;2023-03-19T07:53:34;96642.06;;;11.67;93.35
28927;BME280;16038;47.692;9.400;2023-03-19T07:55:59;96648.31;;;11.34;95.54
28927;BME280;16038;47.692;9.400;2023-03-19T07:58:25;96647.75;;;10.90;100.00
28927;BME280;16038;47.692;9.400;2023-03-19T08:00:51;96645.25;;;11.08;100.00
28927;BME280;16038;47.692;9.400;2023-03-19T08:03:17;96652.59;;;11.31;99.68
28927;BME280;16038;47.692;9.400;2023-03-19T08:05:42;96649.69;;;11.47;97.11
28927;BME280;16038;47.692;9.400;2023-03-19T08:08:07;96646.31;;;11.31;95.62
28927;BME280;16038;47.692;9.400;2023-03-19T08:10:33;96646.41;;;11.38;97.41
28927;BME280;16038;47.692;9.400;2023-03-19T08:12:58;96647.75;;;11.51;95.30
28927;BME280;16038;47.692;9.400;2023-03-19T08:15:24;96649.69;;;11.47;91.19
28927;BME280;16038;47.692;9.400;2023-03-19T08:17:56;96646.81;;;11.36;91.29
28927;BME280;16038;47.692;9.400;2023-03-19T08:20:21;96654.13;;;11.28;90.40
28927;BME280;16038;47.692;9.400;2023-03-19T08:22:50;96648.81;;;11.13;89.55
28927;BME280;16038;47.692;9.400;2023-03-19T08:25:15;96650.44;;;11.47;88.19
28927;BME280;16038;47.692;9.400;2023-03-19T08:27:41;96656.19;;;12.03;85.09
28927;BME280;16038;47.692;9.400;2023-03-19T08:30:07;96654.06;;;12.27;79.39
28927;BME280;16038;47.692;9.400;2023-03-19T08:32:33;96655.91;;;12.63;74.92
28927;BME280;16038;47.692;9.400;2023-03-19T08:34:58;96653.34;;;12.89;73.18
28927;BME280;16038;47.692;9.400;2023-03-19T08:37:24;96644.78;;;13.05;71.06
28927;BME280;16038;47.692;9.400;2023-03-19T08:39:50;96657.59;;;12.79;70.63
28927;BME280;16038;47.692;9.400;2023-03-19T08:42:16;96652.66;;;13.06;69.77
28927;BME280;16038;47.692;9.400;2023-03-19T08:44:41;96654.88;;;13.45;67.87
28927;BME280;16038;47.692;9.400;2023-03-19T08:47:07;96650.78;;;13.25;67.04
28927;BME280;16038;47.692;9.400;2023-03-19T08:49:32;96649.00;;;13.57;65.24
28927;BME280;16038;47.692;9.400;2023-03-19T08:51:57;96654.53;;;13.68;65.67
28927;BME280;16038;47.692;9.400;2023-03-19T08:54:23;96655.03;;;13.92;63.83
28927;BME280;16038;47.692;9.400;2023-03-19T08:56:48;96660.56;;;14.10;61.02
28927;BME280;16038;47.692;9.400;2023-03-19T08:59:13;96660.56;;;14.03;62.80
28927;BME280;16038;47.692;9.400;2023-03-19T09:01:38;96660.53;;;13.92;62.12
28927;BME280;16038;47.692;9.400;2023-03-19T09:04:04;96658.97;;;14.02;61.64
28927;BME280;16038;47.692;9.400;2023-03-19T09:06:29;96658.25;;;14.30;60.98
28927;BME280;16038;47.692;9.400;2023-03-19T09:08:55;96661.41;;;14.46;59.98
28927;BME280;16038;47.692;9.400;2023-03-19T09:11:20;96654.66;;;14.15;58.51
28927;BME280;16038;47.692;9.400;2023-03-19T09:13:47;96653.09;;;14.21;58.82
28927;BME280;16038;47.692;9.400;2023-03-19T09:16:12;96659.00;;;14.27;57.57
28927;BME280;16038;47.692;9.400;2023-03-19T09:18:37;96656.66;;;14.29;57.47
28927;BME280;16038;47.692;9.400;2023-03-19T09:21:03;96659.38;;;14.11;56.42
28927;BME280;16038;47.692;9.400;2023-03-19T09:23:28;96648.75;;;14.24;57.33
28927;BME280;16038;47.692;9.400;2023-03-19T09:25:54;96651.94;;;14.51;56.75
28927;BME280;16038;47.692;9.400;2023-03-19T09:28:19;96654.31;;;14.88;55.27
28927;BME280;16038;47.692;9.400;2023-03-19T09:30:45;96661.00;;;14.98;54.17
28927;BME280;16038;47.692;9.400;2023-03-19T09:33:11;96658.63;;;14.97;53.65
28927;BME280;16038;47.692;9.400;2023-03-19T09:35:37;96652.72;;;15.09;52.45
28927;BME280;16038;47.692;9.400;2023-03-19T09:38:04;96648.72;;;15.24;51.61
28927;BME280;16038;47.692;9.400;2023-03-19T09:40:34;96647.41;;;15.61;51.01
28927;BME280;16038;47.692;9.400;2023-03-19T09:45:45;96635.88;;;16.96;48.25
28927;BME280;16038;47.692;9.400;2023-03-19T09:48:13;96648.00;;;17.44;45.01
28927;BME280;16038;47.692;9.400;2023-03-19T09:50:39;96652.72;;;17.47;44.47
28927;BME280;16038;47.692;9.400;2023-03-19T09:58:04;96638.88;;;17.47;43.21
28927;BME280;16038;47.692;9.400;2023-03-19T10:00:35;96636.38;;;17.91;42.71
28927;BME280;16038;47.692;9.400;2023-03-19T10:08:31;96644.41;;;18.36;41.46
28927;BME280;16038;47.692;9.400;2023-03-19T10:13:52;96630.53;;;18.87;39.96
28927;BME280;16038;47.692;9.400;2023-03-19T10:16:18;96623.25;;;18.97;39.12
28927;BME280;16038;47.692;9.400;2023-03-19T10:18:46;96624.25;;;19.26;39.22
28927;BME280;16038;47.692;9.400;2023-03-19T10:24:14;96634.28;;;18.53;38.59
28927;BME280;16038;47.692;9.400;2023-03-19T10:26:42;96634.59;;;18.31;39.34
28927;BME280;16038;47.692;9.400;2023-03-19T10:29:19;96625.91;;;18.02;40.77
28927;BME280;16038;47.692;9.400;2023-03-19T10:31:49;96626.34;;;17.35;41.68
28927;BME280;16038;47.692;9.400;2023-03-19T10:34:50;96624.03;;;17.95;41.16
28927;BME280;16038;47.692;9.400;2023-03-19T10:37:15;96631.19;;;17.93;41.32
28927;BME280;16038;47.692;9.400;2023-03-19T10:39:41;96624.41;;;17.98;41.13
28927;BME280;16038;47.692;9.400;2023-03-19T10:44:44;96616.50;;;17.65;41.61
28927;BME280;16038;47.692;9.400;2023-03-19T10:47:13;96618.13;;;17.59;41.88
28927;BME280;16038;47.692;9.400;2023-03-19T10:49:39;96606.38;;;17.51;41.24
28927;BME280;16038;47.692;9.400;2023-03-19T10:52:04;96606.88;;;17.08;42.40
28927;BME280;16038;47.692;9.400;2023-03-19T10:54:30;96607.16;;;17.52;40.93
28927;BME280;16038;47.692;9.400;2023-03-19T10:56:57;96609.78;;;17.32;40.94
28927;BME280;16038;47.692;9.400;2023-03-19T10:59:29;96616.03;;;17.05;42.30
28927;BME280;16038;47.692;9.400;2023-03-19T11:01:56;96608.16;;;17.00;42.35
28927;BME280;16038;47.692;9.400;2023-03-19T11:04:22;96606.28;;;16.90;41.86
28927;BME280;16038;47.692;9.400;2023-03-19T11:06:51;96608.97;;;16.97;42.19
28927;BME280;16038;47.692;9.400;2023-03-19T11:09:36;96612.34;;;16.70;42.10
28927;BME280;16038;47.692;9.400;2023-03-19T11:12:06;96605.91;;;16.88;42.35
28927;BME280;16038;47.692;9.400;2023-03-19T11:19:32;96597.19;;;17.58;41.61
28927;BME280;16038;47.692;9.400;2023-03-19T11:24:27;96601.63;;;18.13;39.73
28927;BME280;16038;47.692;9.400;2023-03-19T11:26:55;96606.22;;;18.47;39.01
28927;BME280;16038;47.692;9.400;2023-03-19T11:29:21;96598.94;;;18.57;38.16
28927;BME280;16038;47.692;9.400;2023-03-19T11:31:53;96610.19;;;18.70;37.64
28927;BME280;16038;47.692;9.400;2023-03-19T11:35:11;96592.50;;;18.64;38.04
28927;BME280;16038;47.692;9.400;2023-03-19T11:40:40;96587.00;;;18.60;38.82
28927;BME280;16038;47.692;9.400;2023-03-19T11:58:07;96553.25;;;19.65;37.88
28927;BME280;16038;47.692;9.400;2023-03-19T12:00:50;96556.31;;;19.71;37.30
28927;BME280;16038;47.692;9.400;2023-03-19T12:24:15;96542.34;;;19.75;36.97
28927;BME280;16038;47.692;9.400;2023-03-19T12:29:13;96532.25;;;19.64;37.95
28927;BME280;16038;47.692;9.400;2023-03-19T12:36:32;96529.94;;;18.83;38.66
28927;BME280;16038;47.692;9.400;2023-03-19T12:39:01;96531.28;;;18.51;38.97
28927;BME280;16038;47.692;9.400;2023-03-19T12:41:29;96528.81;;;17.82;40.10
28927;BME280;16038;47.692;9.400;2023-03-19T12:46:39;96524.66;;;18.21;40.10
28927;BME280;16038;47.692;9.400;2023-03-19T12:51:38;96517.56;;;17.38;41.78
28927;BME280;16038;47.692;9.400;2023-03-19T13:04:50;96512.84;;;17.35;43.15
28927;BME280;16038;47.692;9.400;2023-03-19T13:07:19;96510.66;;;17.19;43.00
28927;BME280;16038;47.692;9.400;2023-03-19T13:09:56;96508.28;;;17.22;43.50
28927;BME280;16038;47.692;9.400;2023-03-19T13:12:24;96513.09;;;17.45;42.48
28927;BME280;16038;47.692;9.400;2023-03-19T13:19:47;96502.53;;;17.39;42.52
28927;BME280;16038;47.692;9.400;2023-03-19T13:22:18;96498.13;;;17.11;42.96
28927;BME280;16038;47.692;9.400;2023-03-19T13:24:45;96502.19;;;17.34;43.32
28927;BME280;16038;47.692;9.400;2023-03-19T13:27:14;96503.72;;;17.08;44.27
28927;BME280;16038;47.692;9.400;2023-03-19T13:29:52;96499.16;;;17.25;43.58
28927;BME280;16038;47.692;9.400;2023-03-19T13:32:24;96504.06;;;17.41;43.11
28927;BME280;16038;47.692;9.400;2023-03-19T13:34:51;96498.38;;;17.24;43.99
28927;BME280;16038;47.692;9.400;2023-03-19T13:37:32;96499.94;;;17.25;43.42
28927;BME280;16038;47.692;9.400;2023-03-19T13:39:57;96498.53;;;17.41;43.10
28927;BME280;16038;47.692;9.400;2023-03-19T13:45:48;96489.47;;;17.67;43.16
28927;BME280;16038;47.692;9.400;2023-03-19T13:47:47;96503.06;;;17.85;42.35
28927;BME280;16038;47.692;9.400;2023-03-19T13:50:23;96501.16;;;18.06;41.94
28927;BME280;16038;47.692;9.400;2023-03-19T13:52:50;96495.00;;;17.94;42.10
28927;BME280;16038;47.692;9.400;2023-03-19T13:55:33;96493.03;;;18.42;41.49
28927;BME280;16038;47.692;9.400;2023-03-19T14:05:50;96484.97;;;17.50;43.01
28927;BME280;16038;47.692;9.400;2023-03-19T14:08:20;96484.53;;;17.51;42.17
28927;BME280;16038;47.692;9.400;2023-03-19T14:10:47;96486.59;;;17.47;42.43
28927;BME280;16038;47.692;9.400;2023-03-19T14:13:17;96484.38;;;17.35;42.11
28927;BME280;16038;47.692;9.400;2023-03-19T14:15:48;96488.69;;;17.39;42.99
28927;BME280;16038;47.692;9.400;2023-03-19T14:18:15;96492.22;;;17.40;43.72
28927;BME280;16038;47.692;9.400;2023-03-19T14:20:43;96490.06;;;17.24;44.85
28927;BME280;16038;47.692;9.400;2023-03-19T14:23:19;96489.66;;;16.95;44.50
28927;BME280;16038;47.692;9.400;2023-03-19T14:25:57;96486.28;;;16.76;45.73
28927;BME280;16038;47.692;9.400;2023-03-19T14:28:25;96468.63;;;17.01;45.73
28927;BME280;16038;47.692;9.400;2023-03-19T14:30:53;96479.03;;;16.90;45.39
28927;BME280;16038;47.692;9.400;2023-03-19T14:36:03;96478.94;;;16.97;45.77
28927;BME280;16038;47.692;9.400;2023-03-19T14:41:11;96475.34;;;16.66;46.94
28927;BME280;16038;47.692;9.400;2023-03-19T14:57:13;96476.28;;;16.52;47.29
28927;BME280;16038;47.692;9.400;2023-03-19T14:59:40;96483.28;;;16.60;47.20
28927;BME280;16038;47.692;9.400;2023-03-19T15:02:19;96476.19;;;16.59;47.49
28927;BME280;16038;47.692;9.400;2023-03-19T15:04:44;96480.56;;;16.15;47.57
28927;BME280;16038;47.692;9.400;2023-03-19T15:07:16;96483.25;;;15.77;49.38
28927;BME280;16038;47.692;9.400;2023-03-19T15:09:42;96479.13;;;15.47;49.87
28927;BME280;16038;47.692;9.400;2023-03-19T15:19:48;96499.19;;;14.48;54.04